Time;durP1;ratioP1;P1;durP2;ratioP2;P2;SDS_P1;SDS_P2;PMS_P1;PMS_P2;Temp;Humidity;BMP_temperature;BMP_pressure;BME280_temperature;BME280_humidity;BME280_pressure;Samples;Min_cycle;Max_cycle;Signal;HPM_P1;HPM_P2
2023/04/07 00:00:50;;;;;;;1999.90;999.90;;;;;;;2.68;86.67;97874.28;5132628;28;20039;-77
2023/04/07 00:03:16;;;;;;;1999.90;999.90;;;;;;;2.63;86.61;97882.31;5132747;27;20034;-78
2023/04/07 00:05:41;;;;;;;1999.90;999.90;;;;;;;2.64;86.91;97875.81;5133104;27;20046;-79
2023/04/07 00:08:06;;;;;;;1999.90;999.90;;;;;;;2.62;87.25;97875.25;5132644;27;20066;-80
2023/04/07 00:10:32;;;;;;;1999.90;999.90;;;;;;;2.62;87.11;97872.56;5135284;28;20472;-78
2023/04/07 00:12:57;;;;;;;1999.90;999.90;;;;;;;2.70;86.88;97877.53;5137951;27;20198;-82
2023/04/07 00:15:23;;;;;;;1999.90;999.90;;;;;;;2.63;87.79;97874.19;5118413;28;20399;-76
2023/04/07 00:17:48;;;;;;;1999.90;999.90;;;;;;;2.66;86.61;97877.19;5131650;28;20034;-80
2023/04/07 00:20:13;;;;;;;1999.90;999.90;;;;;;;2.55;87.32;97871.91;5131994;27;20032;-77
2023/04/07 00:22:39;;;;;;;1999.90;999.90;;;;;;;2.58;87.57;97863.31;5131711;27;20033;-77
2023/04/07 00:25:05;;;;;;;1999.90;999.90;;;;;;;2.57;89.10;97877.84;5117224;27;20023;-81
2023/04/07 00:27:30;;;;;;;1999.90;999.90;;;;;;;2.55;89.87;97878.13;5134933;27;20084;-78
2023/04/07 00:29:56;;;;;;;1999.90;999.90;;;;;;;2.53;91.08;97866.75;5135386;27;20464;-77
2023/04/07 00:32:21;;;;;;;1999.90;999.90;;;;;;;2.48;90.86;97873.94;5135621;27;20110;-78
2023/04/07 00:34:47;;;;;;;1999.90;999.90;;;;;;;2.56;90.49;97868.97;5135775;27;20463;-79
2023/04/07 00:37:12;;;;;;;1999.90;999.90;;;;;;;2.47;91.02;97872.31;5135349;27;20533;-80
2023/04/07 00:39:38;;;;;;;1999.90;999.90;;;;;;;2.39;92.01;97870.00;5134856;27;20019;-77
2023/04/07 00:42:06;;;;;;;1999.90;999.90;;;;;;;2.25;93.13;97868.72;5135140;27;20550;-76
2023/04/07 00:44:32;;;;;;;1999.90;999.90;;;;;;;2.09;94.50;97862.25;5134537;27;20027;-76
2023/04/07 00:46:58;;;;;;;1999.90;999.90;;;;;;;2.05;95.36;97864.59;5116190;27;20015;-79
2023/04/07 00:49:27;;;;;;;1999.90;999.90;;;;;;;2.02;95.96;97859.69;5135233;27;20030;-80
2023/04/07 00:51:53;;;;;;;1999.90;999.90;;;;;;;2.05;95.91;97870.00;5135719;27;20087;-78
2023/04/07 00:54:18;;;;;;;1999.90;999.90;;;;;;;2.09;95.29;97865.75;5117531;27;20111;-80
2023/04/07 00:56:44;;;;;;;1999.90;999.90;;;;;;;2.10;95.57;97863.84;5137745;27;20118;-77
2023/04/07 00:59:09;;;;;;;1999.90;999.90;;;;;;;2.16;95.46;97861.00;5135946;27;20531;-77
2023/04/07 01:01:44;;;;;;;1999.90;999.90;;;;;;;2.02;95.56;97873.19;5134554;27;20425;-81
2023/04/07 01:04:31;;;;;;;1999.90;999.90;;;;;;;1.95;95.86;97866.28;5134424;27;20111;-78
2023/04/07 01:07:04;;;;;;;1999.90;999.90;;;;;;;2.00;96.17;97861.84;5115843;27;20116;-77
2023/04/07 01:09:37;;;;;;;1999.90;999.90;;;;;;;1.85;96.47;97858.84;5133749;27;20110;-77
2023/04/07 01:13:01;;;;;;;1999.90;999.90;;;;;;;1.99;96.46;97873.66;5134533;27;20072;-84
2023/04/07 01:15:30;;;;;;;1999.90;999.90;;;;;;;1.71;99.04;97867.47;5051356;28;20128;-78
2023/04/07 01:18:21;;;;;;;1999.90;999.90;;;;;;;1.59;100.00;97867.53;5132337;27;20043;-80
2023/04/07 01:20:50;;;;;;;1999.90;999.90;;;;;;;1.53;100.00;97860.41;5135992;27;20061;-78
2023/04/07 01:24:00;;;;;;;1999.90;999.90;;;;;;;1.46;100.00;97865.09;5118893;27;20066;-78
2023/04/07 01:26:28;;;;;;;1999.90;999.90;;;;;;;1.41;100.00;97857.72;5136884;27;20508;-77
2023/04/07 01:29:06;;;;;;;1999.90;999.90;;;;;;;1.52;100.00;97864.16;5138974;27;20115;-78
2023/04/07 01:31:35;;;;;;;1999.90;999.90;;;;;;;1.46;100.00;97851.63;5115343;27;20064;-76
2023/04/07 01:34:02;;;;;;;1999.90;999.90;;;;;;;1.42;100.00;97861.25;5133678;27;20019;-79
2023/04/07 01:36:30;;;;;;;1999.90;999.90;;;;;;;1.38;100.00;97854.72;5133819;27;20027;-79
2023/04/07 01:38:58;;;;;;;1999.90;999.90;;;;;;;1.40;100.00;97855.28;5133828;27;20020;-82
2023/04/07 01:41:24;;;;;;;1999.90;999.90;;;;;;;1.42;100.00;97853.16;5136218;27;20037;-82
2023/04/07 01:43:52;;;;;;;1999.90;999.90;;;;;;;1.34;100.00;97858.94;5135008;27;20907;-80
2023/04/07 01:46:18;;;;;;;1999.90;999.90;;;;;;;1.29;100.00;97851.56;5135674;27;20530;-80
2023/04/07 01:48:45;;;;;;;1999.90;999.90;;;;;;;1.25;100.00;97844.22;5134608;27;20035;-75
2023/04/07 01:51:16;;;;;;;1999.90;999.90;;;;;;;1.39;100.00;97853.63;5114787;27;20391;-74
2023/04/07 01:53:42;;;;;;;1999.90;999.90;;;;;;;1.31;100.00;97841.38;5133490;27;20027;-77
2023/04/07 01:56:09;;;;;;;1999.90;999.90;;;;;;;1.34;100.00;97856.25;5132700;27;20026;-75
2023/04/07 01:58:35;;;;;;;1999.90;999.90;;;;;;;1.38;100.00;97850.13;5132947;27;20106;-75
2023/04/07 02:01:00;;;;;;;1999.90;999.90;;;;;;;1.35;100.00;97845.22;5132959;27;20134;-75
2023/04/07 02:04:16;;;;;;;1999.90;999.90;;;;;;;1.33;100.00;97850.03;5133052;27;20432;-75
2023/04/07 02:06:47;;;;;;;1999.90;999.90;;;;;;;1.33;100.00;97833.88;5071785;28;20405;-75
2023/04/07 02:09:15;;;;;;;1999.90;999.90;;;;;;;1.26;100.00;97837.75;5111894;28;20067;-76
2023/04/07 02:11:42;;;;;;;1999.90;999.90;;;;;;;1.28;100.00;97833.78;5122101;27;20391;-77
2023/04/07 02:14:08;;;;;;;1999.90;999.90;;;;;;;1.15;100.00;97836.75;5131918;27;20458;-76
2023/04/07 02:16:35;;;;;;;1999.90;999.90;;;;;;;1.12;100.00;97849.84;5132528;27;20049;-78
2023/04/07 02:19:02;;;;;;;1999.90;999.90;;;;;;;1.13;100.00;97848.81;5132750;27;20050;-81
2023/04/07 02:21:29;;;;;;;1999.90;999.90;;;;;;;1.20;100.00;97841.41;5135413;27;20079;-78
2023/04/07 02:23:55;;;;;;;1999.90;999.90;;;;;;;1.21;100.00;97857.34;5106502;28;20119;-75
2023/04/07 02:26:20;;;;;;;1999.90;999.90;;;;;;;1.10;100.00;97852.78;5118940;27;20109;-75
2023/04/07 02:28:46;;;;;;;1999.90;999.90;;;;;;;1.13;100.00;97843.44;5131015;27;20454;-75
2023/04/07 02:31:12;;;;;;;1999.90;999.90;;;;;;;1.13;100.00;97849.59;5132054;27;20466;-74
2023/04/07 02:33:38;;;;;;;1999.90;999.90;;;;;;;1.05;100.00;97852.69;5131807;27;20503;-79
2023/04/07 02:36:04;;;;;;;1999.90;999.90;;;;;;;1.07;100.00;97856.75;5131923;27;20055;-75
2023/04/07 02:38:30;;;;;;;1999.90;999.90;;;;;;;0.91;100.00;97853.97;5132310;27;20031;-75
2023/04/07 02:40:57;;;;;;;1999.90;999.90;;;;;;;0.89;100.00;97856.09;5131725;27;20085;-76
2023/04/07 02:43:24;;;;;;;1999.90;999.90;;;;;;;0.82;100.00;97841.94;5132261;27;20030;-75
2023/04/07 02:45:49;;;;;;;1999.90;999.90;;;;;;;0.73;100.00;97849.56;5131541;27;20152;-75
2023/04/07 02:48:15;;;;;;;1999.90;999.90;;;;;;;0.63;100.00;97849.31;5132609;27;20473;-77
2023/04/07 02:50:40;;;;;;;1999.90;999.90;;;;;;;0.56;100.00;97837.88;5131936;27;20053;-76
2023/04/07 02:53:06;;;;;;;1999.90;999.90;;;;;;;0.56;100.00;97835.19;5131964;27;20387;-76
2023/04/07 02:55:31;;;;;;;1999.90;999.90;;;;;;;0.73;100.00;97849.56;5151152;27;20031;-80
2023/04/07 02:57:57;;;;;;;1999.90;999.90;;;;;;;0.76;100.00;97843.69;5152510;27;20019;-75
2023/04/07 03:00:22;;;;;;;1999.90;999.90;;;;;;;0.76;100.00;97837.50;5152412;27;20126;-75
2023/04/07 03:02:47;;;;;;;1999.90;999.90;;;;;;;0.75;100.00;97836.66;5151962;27;20019;-76
2023/04/07 03:05:13;;;;;;;1999.90;999.90;;;;;;;0.80;100.00;97831.41;5152072;27;20079;-75
2023/04/07 03:07:38;;;;;;;1999.90;999.90;;;;;;;0.67;100.00;97834.34;5152107;27;20053;-76
2023/04/07 03:10:04;;;;;;;1999.90;999.90;;;;;;;0.68;100.00;97827.94;5152066;27;20023;-76
2023/04/07 03:12:30;;;;;;;1999.90;999.90;;;;;;;0.65;100.00;97836.47;5152475;27;20026;-76
2023/04/07 03:14:55;;;;;;;1999.90;999.90;;;;;;;0.60;100.00;97828.25;5152074;27;20391;-75
2023/04/07 03:17:21;;;;;;;1999.90;999.90;;;;;;;0.45;100.00;97825.22;5152228;27;20018;-76
2023/04/07 03:19:46;;;;;;;1999.90;999.90;;;;;;;0.47;100.00;97831.22;5152177;27;20071;-75
2023/04/07 03:22:11;;;;;;;1999.90;999.90;;;;;;;0.39;100.00;97836.94;5152076;27;20031;-74
2023/04/07 03:24:38;;;;;;;1999.90;999.90;;;;;;;0.39;100.00;97820.78;5152124;27;20467;-75
2023/04/07 03:27:04;;;;;;;1999.90;999.90;;;;;;;0.49;100.00;97831.78;5152454;27;20027;-75
2023/04/07 03:29:29;;;;;;;1999.90;999.90;;;;;;;0.46;100.00;97827.72;5152187;27;20033;-75
2023/04/07 03:31:55;;;;;;;1999.90;999.90;;;;;;;0.49;100.00;97829.09;5152335;27;20072;-76
2023/04/07 03:34:20;;;;;;;1999.90;999.90;;;;;;;0.58;100.00;97832.25;5152035;27;20493;-76
2023/04/07 03:36:45;;;;;;;1999.90;999.90;;;;;;;0.55;100.00;97828.16;5152304;27;20054;-76
2023/04/07 03:39:11;;;;;;;1999.90;999.90;;;;;;;0.46;100.00;97827.72;5152423;27;20546;-76
2023/04/07 03:41:36;;;;;;;1999.90;999.90;;;;;;;0.49;100.00;97834.47;5134492;27;20110;-75
2023/04/07 03:44:01;;;;;;;1999.90;999.90;;;;;;;0.40;100.00;97834.03;5153185;27;20023;-75
2023/04/07 03:46:27;;;;;;;1999.90;999.90;;;;;;;0.36;100.00;97835.53;5153158;27;20018;-75
2023/04/07 03:48:52;;;;;;;1999.90;999.90;;;;;;;0.21;100.00;97827.09;5154215;27;20121;-76
2023/04/07 03:51:18;;;;;;;1999.90;999.90;;;;;;;0.20;100.00;97824.63;5128508;27;20471;-76
2023/04/07 03:53:43;;;;;;;1999.90;999.90;;;;;;;0.28;100.00;97837.75;5094269;28;20039;-76
2023/04/07 03:56:09;;;;;;;1999.90;999.90;;;;;;;0.25;100.00;97838.22;5100680;28;20027;-75
2023/04/07 03:58:34;;;;;;;1999.90;999.90;;;;;;;0.16;100.00;97826.19;5133527;27;20031;-76
2023/04/07 04:01:00;;;;;;;1999.90;999.90;;;;;;;0.16;100.00;97837.72;5135817;27;20031;-77
2023/04/07 04:03:25;;;;;;;1999.90;999.90;;;;;;;0.28;100.00;97840.44;5136097;27;20439;-75
2023/04/07 04:05:51;;;;;;;1999.90;999.90;;;;;;;0.17;100.00;97836.69;5141966;27;20075;-77
2023/04/07 04:08:16;;;;;;;1999.90;999.90;;;;;;;0.22;100.00;97836.00;5127141;27;20040;-77
2023/04/07 04:10:41;;;;;;;1999.90;999.90;;;;;;;0.29;100.00;97834.81;5114598;28;20383;-76
2023/04/07 04:13:07;;;;;;;1999.90;999.90;;;;;;;0.21;100.00;97824.41;5114820;28;20072;-76
2023/04/07 04:15:32;;;;;;;1999.90;999.90;;;;;;;0.37;100.00;97828.28;5096616;28;20024;-79
2023/04/07 04:17:58;;;;;;;1999.90;999.90;;;;;;;0.38;100.00;97830.72;5114285;28;20107;-82
2023/04/07 04:20:23;;;;;;;1999.90;999.90;;;;;;;0.26;100.00;97834.47;5114971;28;20379;-75
2023/04/07 04:22:48;;;;;;;1999.90;999.90;;;;;;;0.32;100.00;97831.66;5115017;28;20050;-79
2023/04/07 04:25:16;;;;;;;1999.90;999.90;;;;;;;0.27;100.00;97844.19;5114865;28;20023;-76
2023/04/07 04:27:41;;;;;;;1999.90;999.90;;;;;;;0.15;100.00;97835.28;5115802;28;20047;-76
2023/04/07 04:30:07;;;;;;;1999.90;999.90;;;;;;;0.18;100.00;97837.50;5118562;28;20495;-77
2023/04/07 04:32:33;;;;;;;1999.90;999.90;;;;;;;0.15;100.00;97840.66;5116370;28;20110;-75
2023/04/07 04:34:58;;;;;;;1999.90;999.90;;;;;;;0.17;100.00;97833.16;5114458;28;20035;-77
2023/04/07 04:37:24;;;;;;;1999.90;999.90;;;;;;;0.17;100.00;97838.53;5114606;28;20035;-76
2023/04/07 04:39:50;;;;;;;1999.90;999.90;;;;;;;0.11;100.00;97839.47;5114444;28;20447;-76
2023/04/07 04:42:15;;;;;;;1999.90;999.90;;;;;;;0.10;100.00;97837.81;5114314;28;20660;-77
2023/04/07 04:44:40;;;;;;;1999.90;999.90;;;;;;;0.06;100.00;97828.59;5102814;27;20019;-77
2023/04/07 04:47:06;;;;;;;1999.90;999.90;;;;;;;0.23;100.00;97826.84;5134468;27;20062;-78
2023/04/07 04:49:31;;;;;;;1999.90;999.90;;;;;;;0.29;100.00;97836.69;5136034;27;20027;-76
2023/04/07 04:51:57;;;;;;;1999.90;999.90;;;;;;;0.28;100.00;97829.69;5117637;27;20380;-77
2023/04/07 04:54:22;;;;;;;1999.90;999.90;;;;;;;0.40;100.00;97849.34;5116886;27;20046;-79
2023/04/07 04:56:47;;;;;;;1999.90;999.90;;;;;;;0.43;100.00;97846.19;5128979;27;20027;-81
2023/04/07 04:59:13;;;;;;;1999.90;999.90;;;;;;;0.49;100.00;97834.47;5133099;27;20539;-80
2023/04/07 05:01:38;;;;;;;1999.90;999.90;;;;;;;0.69;100.00;97848.38;5116779;28;20089;-76
2023/04/07 05:04:03;;;;;;;1999.90;999.90;;;;;;;0.73;100.00;97844.19;5130290;27;20050;-77
2023/04/07 05:06:29;;;;;;;1999.90;999.90;;;;;;;0.85;100.00;97853.06;5134465;27;20475;-75
2023/04/07 05:09:03;;;;;;;1999.90;999.90;;;;;;;0.94;100.00;97850.84;5132541;27;20043;-78
2023/04/07 05:11:29;;;;;;;1999.90;999.90;;;;;;;1.00;100.00;97847.19;5117681;27;20027;-83
2023/04/07 05:13:54;;;;;;;1999.90;999.90;;;;;;;1.08;100.00;97849.50;5136081;27;20034;-77
2023/04/07 05:16:20;;;;;;;1999.90;999.90;;;;;;;1.23;100.00;97846.31;5135606;27;20117;-76
2023/04/07 05:18:45;;;;;;;1999.90;999.90;;;;;;;1.69;100.00;97843.47;5137336;27;20092;-77
2023/04/07 05:21:11;;;;;;;1999.90;999.90;;;;;;;2.41;95.30;97846.31;5136754;27;20019;-80
2023/04/07 05:23:36;;;;;;;1999.90;999.90;;;;;;;2.97;88.99;97856.88;5141130;27;20034;-82
2023/04/07 05:26:01;;;;;;;1999.90;999.90;;;;;;;2.36;91.40;97848.91;5137973;27;20023;-83
2023/04/07 05:28:27;;;;;;;1999.90;999.90;;;;;;;1.84;97.03;97829.44;5137913;27;20031;-76
2023/04/07 05:30:52;;;;;;;1999.90;999.90;;;;;;;1.65;100.00;97844.19;5133733;27;20038;-77
2023/04/07 05:33:18;;;;;;;1999.90;999.90;;;;;;;1.59;100.00;97837.88;5133223;27;20054;-75
2023/04/07 05:35:44;;;;;;;1999.90;999.90;;;;;;;1.60;100.00;97844.88;5133790;27;20023;-77
2023/04/07 05:38:10;;;;;;;1999.90;999.90;;;;;;;1.86;100.00;97848.88;5132712;27;20039;-76
2023/04/07 05:40:36;;;;;;;1999.90;999.90;;;;;;;2.00;98.31;97845.66;5114505;27;20031;-75
2023/04/07 05:43:01;;;;;;;1999.90;999.90;;;;;;;2.06;97.01;97857.34;5114897;27;20015;-76
2023/04/07 05:45:26;;;;;;;1999.90;999.90;;;;;;;2.17;95.30;97848.34;5132801;27;20715;-76
2023/04/07 05:47:52;;;;;;;1999.90;999.90;;;;;;;2.28;93.79;97857.44;5132295;27;20020;-78
2023/04/07 05:50:17;;;;;;;1999.90;999.90;;;;;;;2.44;93.30;97857.44;5131814;27;20026;-81
2023/04/07 05:52:42;;;;;;;1999.90;999.90;;;;;;;2.53;90.94;97838.94;5133218;27;20038;-79
2023/04/07 05:55:08;;;;;;;1999.90;999.90;;;;;;;2.72;89.03;97853.00;5132729;27;20041;-77
2023/04/07 05:57:34;;;;;;;1999.90;999.90;;;;;;;2.93;87.21;97844.94;5132419;27;20077;-78
2023/04/07 05:59:59;;;;;;;1999.90;999.90;;;;;;;3.13;84.96;97845.19;5132700;27;20098;-81
2023/04/07 06:02:25;;;;;;;1999.90;999.90;;;;;;;3.06;84.85;97858.09;5132493;27;20106;-78
2023/04/07 06:04:50;;;;;;;1999.90;999.90;;;;;;;3.10;84.32;97856.50;5131533;27;20482;-80
2023/04/07 06:07:16;;;;;;;1999.90;999.90;;;;;;;3.15;83.93;97848.47;5133133;27;20083;-82
2023/04/07 06:09:41;;;;;;;1999.90;999.90;;;;;;;3.91;81.28;97854.78;5135349;27;20031;-81
2023/04/07 06:12:08;;;;;;;1999.90;999.90;;;;;;;4.51;76.66;97848.28;5137023;27;20027;-83
2023/04/07 06:14:33;;;;;;;1999.90;999.90;;;;;;;4.64;76.20;97854.03;5136013;27;20046;-83
2023/04/07 06:16:59;;;;;;;1999.90;999.90;;;;;;;4.09;76.67;97838.16;5135418;27;20031;-83
2023/04/07 06:19:26;;;;;;;1999.90;999.90;;;;;;;3.93;78.85;97851.78;5134339;27;20020;-83
2023/04/07 06:21:53;;;;;;;1999.90;999.90;;;;;;;3.76;79.06;97854.59;5135594;27;20186;-84
2023/04/07 06:24:21;;;;;;;1999.90;999.90;;;;;;;3.69;80.30;97859.41;5136775;27;20031;-79
2023/04/07 06:26:48;;;;;;;1999.90;999.90;;;;;;;3.78;80.70;97847.88;5135511;27;20483;-82
2023/04/07 06:29:13;;;;;;;1999.90;999.90;;;;;;;4.01;78.61;97851.34;5134975;27;20019;-82
2023/04/07 06:31:39;;;;;;;1999.90;999.90;;;;;;;4.15;77.81;97847.97;5135906;27;20531;-83
2023/04/07 06:34:04;;;;;;;1999.90;999.90;;;;;;;3.95;77.73;97826.13;5135999;27;20060;-85
2023/04/07 06:36:30;;;;;;;1999.90;999.90;;;;;;;4.23;78.67;97843.97;5136939;27;20062;-82
2023/04/07 06:38:55;;;;;;;1999.90;999.90;;;;;;;4.90;75.95;97844.19;5138359;27;20015;-83
2023/04/07 06:41:21;;;;;;;1999.90;999.90;;;;;;;4.75;72.96;97838.69;5117364;27;20034;-83
2023/04/07 06:43:50;;;;;;;1999.90;999.90;;;;;;;4.51;73.59;97832.03;5136431;27;20072;-83
2023/04/07 06:46:15;;;;;;;1999.90;999.90;;;;;;;4.77;76.13;97833.81;5136784;27;20027;-80
2023/04/07 06:48:40;;;;;;;1999.90;999.90;;;;;;;4.98;72.55;97829.34;5135647;27;20027;-81
2023/04/07 06:51:06;;;;;;;1999.90;999.90;;;;;;;4.88;73.40;97834.72;5134827;27;20026;-85
2023/04/07 06:53:31;;;;;;;1999.90;999.90;;;;;;;4.93;72.64;97829.31;5134217;27;20062;-81
2023/04/07 06:56:03;;;;;;;1999.90;999.90;;;;;;;5.30;71.84;97836.28;5132365;27;20030;-80
2023/04/07 06:58:29;;;;;;;1999.90;999.90;;;;;;;5.59;71.53;97828.53;5131783;27;20030;-78
2023/04/07 07:00:54;;;;;;;1999.90;999.90;;;;;;;5.67;69.20;97830.72;5132066;27;20035;-81
2023/04/07 07:03:20;;;;;;;1999.90;999.90;;;;;;;5.76;68.55;97839.19;5132415;27;20491;-81
2023/04/07 07:05:45;;;;;;;1999.90;999.90;;;;;;;5.83;68.00;97845.16;5132423;27;20034;-81
2023/04/07 07:08:11;;;;;;;1999.90;999.90;;;;;;;5.78;67.04;97826.97;5131643;27;20043;-78
2023/04/07 07:10:36;;;;;;;1999.90;999.90;;;;;;;5.85;66.61;97833.00;5135043;27;20039;-85
2023/04/07 07:13:02;;;;;;;1999.90;999.90;;;;;;;5.92;66.34;97835.44;5138731;27;20027;-85
2023/04/07 07:15:27;;;;;;;1999.90;999.90;;;;;;;6.07;66.00;97835.47;5137298;27;20027;-86
2023/04/07 07:17:52;;;;;;;1999.90;999.90;;;;;;;6.04;65.39;97822.44;5138297;27;20526;-82
2023/04/07 07:20:18;;;;;;;1999.90;999.90;;;;;;;6.55;63.82;97838.78;5138768;28;20023;-86
2023/04/07 07:22:43;;;;;;;1999.90;999.90;;;;;;;6.88;62.38;97838.19;5136864;28;20064;-84
2023/04/07 07:25:09;;;;;;;1999.90;999.90;;;;;;;7.32;58.97;97839.16;5136401;28;20026;-88
2023/04/07 07:27:34;;;;;;;1999.90;999.90;;;;;;;7.78;57.65;97839.78;5136991;27;20034;-85
2023/04/07 07:30:00;;;;;;;1999.90;999.90;;;;;;;8.16;57.72;97838.22;5136772;27;20051;-84
2023/04/07 07:32:25;;;;;;;1999.90;999.90;;;;;;;8.89;55.20;97839.03;5120020;27;20445;-86
2023/04/07 07:34:50;;;;;;;1999.90;999.90;;;;;;;8.49;53.66;97842.88;5140522;27;20029;-86
2023/04/07 07:37:16;;;;;;;1999.90;999.90;;;;;;;8.71;52.78;97847.09;5142578;27;20030;-87
2023/04/07 07:39:41;;;;;;;1999.90;999.90;;;;;;;9.47;50.96;97842.47;5141810;27;20034;-83
2023/04/07 07:42:06;;;;;;;1999.90;999.90;;;;;;;9.86;49.20;97820.44;5142910;27;20035;-86
2023/04/07 07:44:32;;;;;;;1999.90;999.90;;;;;;;10.85;48.31;97842.16;5140587;27;20019;-89
2023/04/07 07:46:57;;;;;;;1999.90;999.90;;;;;;;12.96;41.96;97847.03;5140212;27;20027;-85
2023/04/07 07:49:22;;;;;;;1999.90;999.90;;;;;;;14.53;38.38;97843.41;5141733;27;20023;-83
2023/04/07 07:51:48;;;;;;;1999.90;999.90;;;;;;;15.72;36.30;97842.41;5143155;27;20023;-85
2023/04/07 07:54:16;;;;;;;1999.90;999.90;;;;;;;16.26;34.87;97845.31;5140732;27;20031;-89
2023/04/07 07:56:42;;;;;;;1999.90;999.90;;;;;;;16.37;34.90;97830.00;5142482;27;20024;-89
2023/04/07 07:59:07;;;;;;;1999.90;999.90;;;;;;;17.78;32.05;97835.13;5140954;27;20035;-83
2023/04/07 08:01:32;;;;;;;1999.90;999.90;;;;;;;17.31;33.27;97831.91;5143534;27;20031;-86
2023/04/07 08:03:58;;;;;;;1999.90;999.90;;;;;;;18.60;30.96;97827.47;5142530;27;20019;-83
2023/04/07 08:06:23;;;;;;;1999.90;999.90;;;;;;;19.05;30.51;97836.28;5142131;27;20022;-88
2023/04/07 08:08:50;;;;;;;1999.90;999.90;;;;;;;18.32;29.59;97785.03;5141554;27;20110;-90
2023/04/07 08:11:15;;;;;;;1999.90;999.90;;;;;;;18.93;29.13;97805.84;5142524;27;20039;-87
2023/04/07 08:13:44;;;;;;;1999.90;999.90;;;;;;;16.47;31.39;97789.00;5145984;27;20031;-85
2023/04/07 08:16:09;;;;;;;1999.90;999.90;;;;;;;16.21;32.18;97806.88;5126423;27;20035;-91
2023/04/07 08:18:36;;;;;;;1999.90;999.90;;;;;;;17.65;31.10;97792.00;5142329;27;20120;-86
2023/04/07 08:21:06;;;;;;;1999.90;999.90;;;;;;;18.36;29.64;97774.84;5124012;27;20035;-88
2023/04/07 08:23:32;;;;;;;1999.90;999.90;;;;;;;19.25;28.72;97813.09;5142534;27;20087;-89
2023/04/07 08:25:57;;;;;;;1999.90;999.90;;;;;;;18.03;30.34;97825.69;5123801;27;20055;-90
2023/04/07 08:28:25;;;;;;;1999.90;999.90;;;;;;;18.11;29.93;97829.47;5140765;27;20062;-84
2023/04/07 08:30:50;;;;;;;1999.90;999.90;;;;;;;18.69;30.12;97828.13;5142453;27;20079;-84
2023/04/07 08:33:15;;;;;;;1999.90;999.90;;;;;;;18.48;30.51;97824.69;5141177;27;20023;-82
2023/04/07 08:35:41;;;;;;;1999.90;999.90;;;;;;;18.74;29.86;97825.09;5141809;27;20114;-90
2023/04/07 08:38:08;;;;;;;1999.90;999.90;;;;;;;17.19;31.42;97817.25;5141876;27;20110;-83
2023/04/07 08:40:33;;;;;;;1999.90;999.90;;;;;;;17.72;31.09;97814.38;5140301;27;20118;-81
2023/04/07 08:43:00;;;;;;;1999.90;999.90;;;;;;;17.98;31.46;97806.50;5141351;27;20094;-85
2023/04/07 08:45:26;;;;;;;1999.90;999.90;;;;;;;19.39;29.40;97815.41;5141634;27;20494;-87
2023/04/07 08:47:57;;;;;;;1999.90;999.90;;;;;;;19.33;28.40;97816.84;5145776;27;20096;-84
2023/04/07 08:50:26;;;;;;;1999.90;999.90;;;;;;;19.21;28.45;97814.13;5124059;27;20057;-87
2023/04/07 08:52:55;;;;;;;1999.90;999.90;;;;;;;19.65;27.78;97803.84;5140714;27;20015;-83
2023/04/07 08:55:21;;;;;;;1999.90;999.90;;;;;;;19.54;28.07;97795.25;5141093;27;20050;-86
2023/04/07 08:57:47;;;;;;;1999.90;999.90;;;;;;;19.25;29.14;97804.78;5142607;27;20027;-80
2023/04/07 09:00:13;;;;;;;1999.90;999.90;;;;;;;19.46;28.99;97800.97;5144215;27;20448;-85
2023/04/07 09:02:43;;;;;;;1999.90;999.90;;;;;;;20.13;27.73;97800.66;5146473;27;20030;-89
2023/04/07 09:05:09;;;;;;;1999.90;999.90;;;;;;;20.50;26.84;97803.09;5142404;27;20521;-82
2023/04/07 09:07:37;;;;;;;1999.90;999.90;;;;;;;17.76;29.90;97790.38;5140728;27;20058;-86
2023/04/07 09:10:03;;;;;;;1999.90;999.90;;;;;;;20.23;27.07;97794.56;5140622;27;20039;-80
2023/04/07 09:12:30;;;;;;;1999.90;999.90;;;;;;;20.86;26.63;97794.34;5144502;27;20031;-82
2023/04/07 09:14:56;;;;;;;1999.90;999.90;;;;;;;21.34;26.11;97799.28;5142158;27;20027;-84
2023/04/07 09:17:21;;;;;;;1999.90;999.90;;;;;;;21.29;26.96;97780.13;5140787;27;20025;-80
2023/04/07 09:19:47;;;;;;;1999.90;999.90;;;;;;;21.69;25.39;97776.03;5140441;27;20522;-81
2023/04/07 09:22:13;;;;;;;1999.90;999.90;;;;;;;21.80;24.94;97774.25;5141060;27;20059;-84
2023/04/07 09:24:40;;;;;;;1999.90;999.90;;;;;;;21.80;24.93;97774.25;5122887;27;20023;-84
2023/04/07 09:27:18;;;;;;;1999.90;999.90;;;;;;;21.97;25.27;97779.31;5121875;27;20082;-80
2023/04/07 09:29:47;;;;;;;1999.90;999.90;;;;;;;21.81;25.19;97773.03;5139684;27;20514;-84
2023/04/07 09:32:33;;;;;;;1999.90;999.90;;;;;;;21.53;24.94;97772.56;5138070;27;20027;-82
2023/04/07 09:34:59;;;;;;;1999.90;999.90;;;;;;;21.48;25.06;97765.34;5143024;27;20035;-82
2023/04/07 09:37:24;;;;;;;1999.90;999.90;;;;;;;20.13;26.14;97759.00;5145637;27;20036;-83
2023/04/07 09:39:52;;;;;;;1999.90;999.90;;;;;;;21.70;25.38;97758.16;5142898;27;20126;-81
2023/04/07 09:42:19;;;;;;;1999.90;999.90;;;;;;;22.79;24.17;97753.41;5145995;27;20033;-85
2023/04/07 09:44:44;;;;;;;1999.90;999.90;;;;;;;23.25;23.29;97757.50;5143494;27;20031;-83
2023/04/07 09:47:10;;;;;;;1999.90;999.90;;;;;;;23.01;23.47;97751.66;5139141;27;20015;-80
2023/04/07 09:49:53;;;;;;;1999.90;999.90;;;;;;;24.37;22.83;97756.84;5118592;27;20114;-84
2023/04/07 09:52:21;;;;;;;1999.90;999.90;;;;;;;25.16;21.13;97742.00;5135398;27;20136;-79
2023/04/07 09:54:48;;;;;;;1999.90;999.90;;;;;;;23.69;21.67;97737.19;5137392;27;20031;-87
2023/04/07 09:57:13;;;;;;;1999.90;999.90;;;;;;;22.25;22.35;97721.19;5123078;27;20539;-80
2023/04/07 09:59:43;;;;;;;1999.90;999.90;;;;;;;22.22;23.51;97724.75;5142671;27;20058;-85
2023/04/07 10:02:10;;;;;;;1999.90;999.90;;;;;;;21.03;23.28;97712.41;5139639;27;20052;-82
2023/04/07 10:04:36;;;;;;;1999.90;999.90;;;;;;;19.02;25.71;97698.38;5140936;27;20446;-84
2023/04/07 10:07:02;;;;;;;1999.90;999.90;;;;;;;20.99;24.55;97706.78;5148041;27;20050;-89
2023/04/07 10:09:29;;;;;;;1999.90;999.90;;;;;;;22.49;23.02;97702.41;5145321;27;20134;-86
2023/04/07 10:11:56;;;;;;;1999.90;999.90;;;;;;;22.67;22.27;97704.25;5122439;27;20063;-88
2023/04/07 10:14:24;;;;;;;1999.90;999.90;;;;;;;22.77;21.52;97705.56;5141139;27;20415;-87
2023/04/07 10:16:50;;;;;;;1999.90;999.90;;;;;;;22.16;21.97;97692.81;5137269;27;20535;-85
2023/04/07 10:19:18;;;;;;;1999.90;999.90;;;;;;;22.55;21.55;97690.53;5138068;27;20036;-82
2023/04/07 10:21:43;;;;;;;1999.90;999.90;;;;;;;23.59;21.21;97691.22;5137828;27;20038;-82
2023/04/07 10:24:25;;;;;;;1999.90;999.90;;;;;;;24.78;20.41;97704.28;5136871;27;20035;-82
2023/04/07 10:27:10;;;;;;;1999.90;999.90;;;;;;;23.39;20.74;97690.66;5137522;27;20031;-79
2023/04/07 10:29:42;;;;;;;1999.90;999.90;;;;;;;23.05;21.12;97686.34;5139515;27;20023;-82
2023/04/07 10:32:08;;;;;;;1999.90;999.90;;;;;;;23.32;20.39;97684.19;5136315;27;20051;-80
2023/04/07 10:34:48;;;;;;;1999.90;999.90;;;;;;;24.05;20.13;97697.13;5134369;27;20062;-81
2023/04/07 10:37:17;;;;;;;1999.90;999.90;;;;;;;24.16;20.38;97681.25;5136786;27;20029;-80
2023/04/07 10:39:43;;;;;;;1999.90;999.90;;;;;;;25.21;19.24;97687.63;5136674;27;20110;-83
2023/04/07 10:42:36;;;;;;;1999.90;999.90;;;;;;;25.55;19.24;97692.50;5138857;27;20066;-83
2023/04/07 10:45:03;;;;;;;1999.90;999.90;;;;;;;25.32;18.72;97683.63;5137495;27;20031;-84
2023/04/07 10:47:28;;;;;;;1999.90;999.90;;;;;;;25.45;17.82;97676.44;5134276;27;20031;-76
2023/04/07 10:50:16;;;;;;;1999.90;999.90;;;;;;;24.73;18.90;97673.09;5134365;27;20138;-79
2023/04/07 10:52:41;;;;;;;1999.90;999.90;;;;;;;25.01;18.87;97667.59;5117437;27;20468;-82
2023/04/07 10:55:39;;;;;;;1999.90;999.90;;;;;;;24.96;19.26;97659.59;5136116;27;20038;-80
2023/04/07 10:58:29;;;;;;;1999.90;999.90;;;;;;;24.23;19.55;97667.31;5139764;27;20035;-84